Guanghua, China
Current Conditions -  °F | °C
As of 7:00 AM on Thursday 23 Oct 2014 (Local Time) from ZHHH Reporting Station
Haze Haze  
Wind Chill: 57°   Ceiling: Unl
Heat Index: 57°   Visibility: 1.8mi
Dew Point: 55°   Wind: 7mph
Humidity: 94%   Direction: 100°E
Pressure: 30.12"   Gusts: NA
Location:  32.38°N, 111.67°E
Report Text: ZHHH 222300Z 10003MPS 3000 BR NSC 14/13 Q1020 NOSIG
Loading
Personal Weather Stations






























Interactive Weather Map
Tropical Storm Tracking
New forecast layout! Learn more

10-Day Weather Forecast

Advertisements
Track Severe Weather on mobile